createdAt,value
2018-06-09T00:00:48.705Z,21.93
2018-06-09T00:03:19.886Z,22.57
2018-06-09T00:05:48.335Z,21.90
2018-06-09T00:08:17.893Z,20.73
2018-06-09T00:10:47.963Z,22.37
2018-06-09T00:13:16.592Z,20.67
2018-06-09T00:15:45.731Z,21.93
2018-06-09T00:18:13.907Z,20.80
2018-06-09T00:20:42.742Z,20.97
2018-06-09T00:23:14.754Z,19.20
2018-06-09T00:25:43.164Z,18.97
2018-06-09T00:28:11.407Z,20.20
2018-06-09T00:30:41.153Z,19.63
2018-06-09T00:33:09.865Z,20.57
2018-06-09T00:35:38.967Z,19.77
2018-06-09T00:38:07.315Z,19.80
2018-06-09T00:40:36.445Z,19.10
2018-06-09T00:43:05.525Z,18.93
2018-06-09T00:45:33.824Z,19.40
2018-06-09T00:48:04.338Z,18.33
2018-06-09T00:50:32.823Z,19.23
2018-06-09T00:53:00.956Z,19.37
2018-06-09T00:55:29.780Z,19.87
2018-06-09T00:57:58.703Z,20.83
2018-06-09T01:00:26.898Z,19.90
2018-06-09T01:02:55.298Z,19.47
2018-06-09T01:05:24.326Z,20.77
2018-06-09T01:07:52.964Z,19.87
2018-06-09T01:10:22.156Z,19.73
2018-06-09T01:12:51.134Z,18.67
2018-06-09T01:15:20.114Z,19.43
2018-06-09T01:17:48.235Z,19.70
2018-06-09T01:20:16.676Z,18.90
2018-06-09T01:22:45.079Z,20.43
2018-06-09T01:25:13.442Z,19.87
2018-06-09T01:27:41.834Z,21.67
2018-06-09T01:30:10.202Z,21.27
2018-06-09T01:32:38.607Z,21.23
2018-06-09T01:35:07.492Z,19.40
2018-06-09T01:37:35.572Z,20.23
2018-06-09T01:40:04.119Z,20.47
2018-06-09T01:42:33.702Z,20.97
2018-06-09T01:45:01.762Z,19.20
2018-06-09T01:47:30.047Z,18.90
2018-06-09T01:49:58.454Z,20.70
2018-06-09T01:52:26.651Z,19.47
2018-06-09T01:54:54.747Z,21.00
2018-06-09T01:57:23.045Z,21.63
2018-06-09T01:59:51.279Z,21.00
2018-06-09T02:02:21.664Z,21.50
2018-06-09T02:04:50.049Z,19.43
2018-06-09T02:07:20.858Z,19.03
2018-06-09T02:09:48.821Z,20.33
2018-06-09T02:12:17.536Z,19.43
2018-06-09T02:14:46.607Z,25.50
2018-06-09T02:17:14.625Z,25.27
2018-06-09T02:19:43.203Z,26.10
2018-06-09T02:22:11.646Z,24.43
2018-06-09T02:24:39.788Z,26.70
2018-06-09T02:27:07.954Z,26.00
2018-06-09T02:29:36.345Z,26.77
2018-06-09T02:32:05.900Z,26.90
2018-06-09T02:34:36.725Z,24.47
2018-06-09T02:37:05.550Z,24.73
2018-06-09T02:39:33.688Z,24.80
2018-06-09T02:42:01.898Z,25.47
2018-06-09T02:44:30.238Z,23.07
2018-06-09T02:46:58.434Z,22.30
2018-06-09T02:49:26.608Z,22.80
2018-06-09T02:51:54.787Z,23.17
2018-06-09T02:54:23.526Z,22.80
2018-06-09T02:56:57.637Z,21.80
2018-06-09T02:59:26.102Z,23.00
2018-06-09T03:01:54.399Z,23.60
2018-06-09T03:04:24.428Z,23.53
2018-06-09T03:06:52.712Z,22.40
2018-06-09T03:09:21.388Z,21.30
2018-06-09T03:11:49.446Z,21.37
2018-06-09T03:14:17.649Z,20.90
2018-06-09T03:16:45.944Z,21.73
2018-06-09T03:19:14.017Z,23.83
2018-06-09T03:21:46.677Z,23.37
2018-06-09T03:24:14.935Z,23.90
2018-06-09T03:26:43.090Z,21.70
2018-06-09T03:29:11.164Z,21.53
2018-06-09T03:31:41.488Z,22.33
2018-06-09T03:34:10.006Z,20.57
2018-06-09T03:36:38.155Z,20.83
2018-06-09T03:39:07.646Z,20.63
2018-06-09T03:41:36.006Z,21.53
2018-06-09T03:44:04.268Z,19.13
2018-06-09T03:46:32.811Z,21.77
2018-06-09T03:49:01.173Z,22.83
2018-06-09T03:51:30.779Z,20.97
2018-06-09T03:53:59.430Z,20.03
2018-06-09T03:56:27.928Z,20.17
2018-06-09T03:58:56.534Z,20.10
2018-06-09T04:01:25.092Z,17.63
2018-06-09T04:03:53.094Z,17.80
2018-06-09T04:06:21.185Z,16.90
2018-06-09T04:08:49.480Z,18.30
2018-06-09T04:11:18.115Z,18.77
2018-06-09T04:13:46.289Z,19.63
2018-06-09T04:16:14.735Z,19.90
2018-06-09T04:18:43.547Z,21.50
2018-06-09T04:21:12.028Z,21.63
2018-06-09T04:23:40.968Z,21.70
2018-06-09T04:26:08.997Z,19.73
2018-06-09T04:28:37.349Z,19.90
2018-06-09T04:31:05.940Z,19.90
2018-06-09T04:33:34.151Z,20.40
2018-06-09T04:36:02.567Z,20.20
2018-06-09T04:38:30.505Z,19.40
2018-06-09T04:40:58.874Z,19.47
2018-06-09T04:43:27.355Z,20.50
2018-06-09T04:45:55.597Z,21.00
2018-06-09T04:48:23.606Z,22.13
2018-06-09T04:50:51.954Z,21.83
2018-06-09T04:53:20.327Z,20.93
2018-06-09T04:55:48.439Z,20.93
2018-06-09T04:58:16.697Z,21.17
2018-06-09T05:00:44.881Z,20.37
2018-06-09T05:03:13.990Z,22.23
2018-06-09T05:05:42.440Z,22.70
2018-06-09T05:08:10.591Z,22.33
2018-06-09T05:10:38.841Z,22.50
2018-06-09T05:13:07.106Z,20.57
2018-06-09T05:15:35.522Z,22.40
2018-06-09T05:18:04.024Z,22.47
2018-06-09T05:20:32.183Z,22.90
2018-06-09T05:23:00.538Z,22.07
2018-06-09T05:25:29.824Z,24.93
2018-06-09T05:27:57.766Z,24.63
2018-06-09T05:30:26.663Z,22.83
2018-06-09T05:32:54.611Z,22.40
2018-06-09T05:35:23.787Z,21.57
2018-06-09T05:37:51.942Z,22.37
2018-06-09T05:40:20.129Z,22.60
2018-06-09T05:42:48.201Z,21.53
2018-06-09T05:45:16.507Z,23.00
2018-06-09T05:47:46.617Z,22.20
2018-06-09T05:50:15.490Z,21.23
2018-06-09T05:52:45.193Z,21.33
2018-06-09T05:55:13.528Z,20.83
2018-06-09T05:57:41.658Z,20.97
2018-06-09T06:00:10.432Z,20.43
2018-06-09T06:02:39.956Z,20.13
2018-06-09T06:05:08.350Z,20.47
2018-06-09T06:07:36.694Z,19.93
2018-06-09T06:10:04.968Z,20.47
2018-06-09T06:12:33.381Z,20.90
2018-06-09T06:15:02.858Z,20.47
2018-06-09T06:17:31.847Z,20.17
2018-06-09T06:20:00.124Z,20.43
2018-06-09T06:22:28.875Z,19.47
2018-06-09T06:25:10.518Z,18.90
2018-06-09T06:27:41.311Z,19.47
2018-06-09T06:30:13.403Z,18.33
2018-06-09T06:33:15.946Z,19.90
2018-06-09T06:35:44.198Z,19.00
2018-06-09T06:38:12.810Z,19.83
2018-06-09T06:40:41.399Z,20.43
2018-06-09T06:43:11.735Z,19.10
2018-06-09T06:45:40.241Z,18.53
2018-06-09T06:48:09.032Z,17.60
2018-06-09T06:50:37.585Z,16.57
2018-06-09T06:53:05.907Z,16.13
2018-06-09T06:55:34.771Z,15.97
2018-06-09T06:58:03.288Z,15.97
2018-06-09T07:00:31.646Z,15.37
2018-06-09T07:02:59.789Z,15.53
2018-06-09T07:05:28.180Z,14.80
2018-06-09T07:07:56.395Z,13.70
2018-06-09T07:10:24.626Z,13.30
2018-06-09T07:12:53.619Z,14.30
2018-06-09T07:15:21.805Z,14.37
2018-06-09T07:17:51.265Z,13.70
2018-06-09T07:20:21.082Z,13.70
2018-06-09T07:22:51.365Z,14.00
2018-06-09T07:25:22.504Z,14.13
2018-06-09T07:27:51.582Z,14.53
2018-06-09T07:30:19.839Z,13.63
2018-06-09T07:32:49.363Z,13.67
2018-06-09T07:35:17.720Z,12.90
2018-06-09T07:37:46.051Z,13.40
2018-06-09T07:40:13.982Z,12.97
2018-06-09T07:42:42.553Z,13.00
2018-06-09T07:45:12.677Z,13.17
2018-06-09T07:47:41.260Z,13.63
2018-06-09T07:50:09.537Z,12.87
2018-06-09T07:52:37.828Z,13.13
2018-06-09T07:55:06.531Z,12.20
2018-06-09T07:57:34.784Z,12.27
2018-06-09T08:00:03.462Z,12.40
2018-06-09T08:02:32.639Z,40.10
2018-06-09T08:05:01.552Z,11.63
2018-06-09T08:07:30.233Z,12.13
2018-06-09T08:09:59.235Z,11.30
2018-06-09T08:12:27.647Z,11.53
2018-06-09T08:14:57.508Z,12.17
2018-06-09T08:17:26.803Z,10.97
2018-06-09T08:19:56.510Z,11.37
2018-06-09T08:22:25.036Z,11.70
2018-06-09T08:24:53.070Z,11.40
2018-06-09T08:27:23.730Z,11.70
2018-06-09T08:29:56.273Z,10.00
2018-06-09T08:32:27.233Z,9.93
2018-06-09T08:34:56.411Z,9.57
2018-06-09T08:37:24.604Z,9.03
2018-06-09T08:39:53.167Z,9.23
2018-06-09T08:45:22.198Z,9.60
2018-06-09T08:47:51.888Z,9.43
2018-06-09T08:50:21.332Z,9.30
2018-06-09T08:52:50.315Z,25.23
2018-06-09T08:55:18.613Z,10.30
2018-06-09T08:57:49.269Z,11.13
2018-06-09T09:00:17.612Z,10.03
2018-06-09T09:02:47.634Z,9.87
2018-06-09T09:05:16.060Z,9.10
2018-06-09T09:07:46.918Z,9.77
2018-06-09T09:10:15.226Z,8.73
2018-06-09T09:12:44.844Z,8.97
2018-06-09T09:15:13.330Z,9.13
2018-06-09T09:17:43.690Z,9.10
2018-06-09T09:20:12.421Z,9.33
2018-06-09T09:22:44.600Z,9.30
2018-06-09T09:25:14.778Z,8.37
2018-06-09T09:27:44.108Z,8.03
2018-06-09T09:30:13.748Z,8.40
2018-06-09T09:32:42.473Z,8.60
2018-06-09T09:35:13.521Z,8.67
2018-06-09T09:37:48.338Z,9.10
2018-06-09T09:40:17.696Z,8.70
2018-06-09T09:42:46.964Z,8.47
2018-06-09T09:45:16.224Z,8.00
2018-06-09T09:47:47.857Z,8.27
2018-06-09T09:50:19.725Z,8.50
2018-06-09T09:52:48.716Z,8.47
2018-06-09T09:55:18.777Z,8.20
2018-06-09T09:58:01.816Z,9.10
2018-06-09T10:00:38.187Z,8.63
2018-06-09T10:03:07.214Z,8.73
2018-06-09T10:05:37.670Z,8.70
2018-06-09T10:08:06.638Z,8.70
2018-06-09T10:10:36.842Z,9.17
2018-06-09T10:13:08.265Z,8.03
2018-06-09T10:15:41.084Z,8.50
2018-06-09T10:18:09.791Z,8.50
2018-06-09T10:20:37.896Z,8.67
2018-06-09T10:23:07.739Z,7.70
2018-06-09T10:25:39.791Z,8.23
2018-06-09T10:28:09.470Z,8.40
2018-06-09T10:30:37.833Z,8.13
2018-06-09T10:33:07.095Z,7.93
2018-06-09T10:35:37.407Z,7.10
2018-06-09T10:38:06.725Z,7.83
2018-06-09T10:40:37.055Z,7.50
2018-06-09T10:43:08.315Z,7.37
2018-06-09T10:45:36.489Z,6.80
2018-06-09T10:48:05.863Z,7.20
2018-06-09T10:50:49.819Z,7.40
2018-06-09T10:53:20.365Z,6.33
2018-06-09T10:55:50.879Z,5.70
2018-06-09T10:58:21.890Z,6.63
2018-06-09T11:00:50.619Z,6.40
2018-06-09T11:03:20.545Z,6.90
2018-06-09T11:05:48.815Z,7.90
2018-06-09T11:08:18.190Z,7.67
2018-06-09T11:10:47.413Z,7.67
2018-06-09T11:13:16.093Z,7.37
2018-06-09T11:15:44.624Z,8.17
2018-06-09T11:18:13.876Z,7.77
2018-06-09T11:20:42.295Z,7.27
2018-06-09T11:23:12.814Z,7.00
2018-06-09T11:25:48.685Z,7.10
2018-06-09T11:28:19.251Z,7.80
2018-06-09T11:30:48.722Z,7.07
2018-06-09T11:33:17.169Z,8.27
2018-06-09T11:35:47.685Z,8.00
2018-06-09T11:38:16.642Z,7.60
2018-06-09T11:40:45.898Z,6.40
2018-06-09T11:43:14.970Z,6.40
2018-06-09T11:45:46.653Z,6.03
2018-06-09T11:48:16.098Z,7.20
2018-06-09T11:50:45.679Z,7.30
2018-06-09T11:53:14.126Z,6.90
2018-06-09T11:55:45.494Z,6.53
2018-06-09T11:58:14.295Z,6.87
2018-06-09T12:00:43.540Z,7.07
2018-06-09T12:03:13.050Z,6.93
2018-06-09T12:05:42.243Z,6.77
2018-06-09T12:08:11.704Z,5.97
2018-06-09T12:10:51.188Z,7.13
2018-06-09T12:13:21.663Z,6.57
2018-06-09T12:15:51.362Z,5.93
2018-06-09T12:18:20.522Z,6.77
2018-06-09T12:21:10.508Z,6.47
2018-06-09T12:23:41.346Z,6.27
2018-06-09T12:26:10.342Z,5.90
2018-06-09T12:28:39.095Z,5.40
2018-06-09T12:31:07.385Z,6.03
2018-06-09T12:33:37.423Z,5.90
2018-06-09T12:36:05.669Z,5.97
2018-06-09T12:38:34.342Z,6.43
2018-06-09T12:41:02.716Z,5.57
2018-06-09T12:43:32.186Z,5.37
2018-06-09T12:46:02.939Z,5.30
2018-06-09T12:48:32.009Z,5.40
2018-06-09T12:51:00.719Z,5.30
2018-06-09T12:53:29.734Z,5.10
2018-06-09T12:55:59.070Z,5.57
2018-06-09T12:58:27.441Z,6.00
2018-06-09T13:00:56.985Z,5.40
2018-06-09T13:03:26.212Z,5.27
2018-06-09T13:05:59.571Z,5.33
2018-06-09T13:08:28.602Z,5.10
2018-06-09T13:10:58.765Z,5.87
2018-06-09T13:13:27.649Z,4.70
2018-06-09T13:15:56.596Z,4.87
2018-06-09T13:18:26.343Z,5.47
2018-06-09T13:20:54.781Z,5.40
2018-06-09T13:23:26.887Z,4.90
2018-06-09T13:25:55.202Z,4.80
2018-06-09T13:28:24.530Z,5.00
2018-06-09T13:30:53.133Z,6.10
2018-06-09T13:33:22.970Z,5.60
2018-06-09T13:35:52.637Z,4.70
2018-06-09T13:38:23.288Z,5.20
2018-06-09T13:40:51.743Z,5.30
2018-06-09T13:43:20.604Z,5.13
2018-06-09T13:45:50.345Z,5.00
2018-06-09T13:48:21.773Z,5.60
2018-06-09T13:50:51.810Z,6.67
2018-06-09T13:53:20.154Z,5.40
2018-06-09T13:55:49.901Z,5.30
2018-06-09T13:58:17.983Z,4.83
2018-06-09T14:00:48.765Z,5.30
2018-06-09T14:03:19.767Z,4.77
2018-06-09T14:05:49.331Z,5.10
2018-06-09T14:08:19.166Z,5.07
2018-06-09T14:10:49.470Z,4.80
2018-06-09T14:13:18.925Z,5.03
2018-06-09T14:15:47.087Z,5.17
2018-06-09T14:18:16.874Z,4.90
2018-06-09T14:20:47.214Z,5.50
2018-06-09T14:23:16.730Z,5.13
2018-06-09T14:25:45.030Z,5.20
2018-06-09T14:28:13.554Z,4.77
2018-06-09T14:30:42.227Z,5.70
2018-06-09T14:33:15.307Z,5.20
2018-06-09T14:35:47.234Z,4.90
2018-06-09T14:38:15.778Z,4.83
2018-06-09T14:40:46.471Z,5.10
2018-06-09T14:43:15.387Z,5.07
2018-06-09T14:45:43.569Z,5.03
2018-06-09T14:48:11.607Z,5.53
2018-06-09T14:50:39.762Z,5.10
2018-06-09T14:53:08.817Z,5.20
2018-06-09T14:55:38.492Z,5.40
2018-06-09T14:58:06.706Z,5.33
2018-06-09T15:00:40.880Z,5.10
2018-06-09T15:03:09.787Z,5.90
2018-06-09T15:05:39.486Z,5.20
2018-06-09T15:08:08.856Z,5.63
2018-06-09T15:10:37.500Z,5.53
2018-06-09T15:13:06.022Z,6.00
2018-06-09T15:15:34.782Z,6.53
2018-06-09T15:18:03.548Z,5.87
2018-06-09T15:20:31.647Z,6.13
2018-06-09T15:23:00.120Z,5.53
2018-06-09T15:25:28.829Z,5.63
2018-06-09T15:27:57.672Z,5.77
2018-06-09T15:30:31.273Z,6.20
2018-06-09T15:33:00.556Z,5.20
2018-06-09T15:35:32.304Z,5.63
2018-06-09T15:38:04.031Z,5.23
2018-06-09T15:40:33.590Z,5.57
2018-06-09T15:43:02.099Z,5.27
2018-06-09T15:45:35.778Z,4.97
2018-06-09T15:48:04.386Z,5.20
2018-06-09T15:50:32.409Z,5.63
2018-06-09T15:53:02.234Z,5.30
2018-06-09T15:55:31.835Z,5.10
2018-06-09T15:58:01.222Z,5.30
2018-06-09T16:00:31.435Z,5.43
2018-06-09T16:03:00.673Z,5.37
2018-06-09T16:05:30.277Z,5.37
2018-06-09T16:08:00.406Z,5.33
2018-06-09T16:10:28.729Z,5.43
2018-06-09T16:13:00.165Z,5.60
2018-06-09T16:16:32.222Z,5.20
2018-06-09T16:19:00.470Z,5.13
2018-06-09T16:21:28.889Z,5.23
2018-06-09T16:23:59.133Z,5.90
2018-06-09T16:26:28.165Z,5.67
2018-06-09T16:28:56.554Z,6.00
2018-06-09T16:31:30.114Z,6.20
2018-06-09T16:33:59.348Z,5.80
2018-06-09T16:36:28.676Z,6.03
2018-06-09T16:38:59.229Z,5.53
2018-06-09T16:41:30.979Z,5.63
2018-06-09T16:43:59.742Z,6.00
2018-06-09T16:46:36.620Z,6.77
2018-06-09T16:49:06.058Z,7.70
2018-06-09T16:51:36.636Z,7.63
2018-06-09T16:54:07.457Z,7.33
2018-06-09T16:56:37.230Z,7.00
2018-06-09T16:59:05.642Z,6.43
2018-06-09T17:01:36.533Z,6.67
2018-06-09T17:04:05.628Z,13.83
2018-06-09T17:06:35.341Z,17.07
2018-06-09T17:09:11.102Z,15.63
2018-06-09T17:11:41.801Z,10.60
2018-06-09T17:14:11.397Z,7.63
2018-06-09T17:16:40.676Z,9.37
2018-06-09T17:19:11.418Z,12.80
2018-06-09T17:21:40.567Z,14.70
2018-06-09T17:24:14.959Z,12.43
2018-06-09T17:26:43.503Z,8.93
2018-06-09T17:29:17.100Z,16.13
2018-06-09T17:31:48.137Z,6.50
2018-06-09T17:34:18.091Z,5.37
2018-06-09T17:36:46.357Z,6.43
2018-06-09T17:39:16.921Z,6.80
2018-06-09T17:41:45.749Z,7.60
2018-06-09T17:44:17.018Z,7.07
2018-06-09T17:46:48.032Z,6.97
2018-06-09T17:49:17.600Z,6.63
2018-06-09T17:51:46.636Z,6.17
2018-06-09T17:54:16.355Z,6.53
2018-06-09T17:56:49.651Z,6.30
2018-06-09T17:59:22.228Z,6.13
2018-06-09T18:01:57.706Z,6.80
2018-06-09T18:04:35.348Z,6.77
2018-06-09T18:07:04.502Z,6.17
2018-06-09T18:09:38.132Z,6.50
2018-06-09T18:12:07.345Z,6.33
2018-06-09T18:14:37.207Z,6.67
2018-06-09T18:17:07.967Z,6.30
2018-06-09T18:19:36.526Z,6.00
2018-06-09T18:22:05.488Z,5.70
2018-06-09T18:24:33.951Z,6.20
2018-06-09T18:27:07.138Z,5.83
2018-06-09T18:29:35.438Z,5.33
2018-06-09T18:32:04.043Z,6.27
2018-06-09T18:34:32.328Z,7.27
2018-06-09T18:37:01.773Z,7.53
2018-06-09T18:39:34.231Z,5.77
2018-06-09T18:42:04.716Z,7.13
2018-06-09T18:44:33.835Z,6.60
2018-06-09T18:47:02.440Z,8.27
2018-06-09T18:49:33.956Z,7.30
2018-06-09T18:52:03.344Z,6.60
2018-06-09T18:54:37.905Z,7.00
2018-06-09T18:57:06.934Z,7.40
2018-06-09T18:59:40.011Z,6.13
2018-06-09T19:02:09.352Z,5.23
2018-06-09T19:04:39.990Z,5.07
2018-06-09T19:07:13.606Z,5.80
2018-06-09T19:09:50.798Z,5.70
2018-06-09T19:12:20.718Z,4.87
2018-06-09T19:14:50.295Z,7.30
2018-06-09T19:17:20.016Z,6.87
2018-06-09T19:19:50.631Z,5.07
2018-06-09T19:22:18.952Z,5.73
2018-06-09T19:24:49.397Z,5.70
2018-06-09T19:27:18.198Z,6.67
2018-06-09T19:29:47.985Z,6.03
2018-06-09T19:32:18.847Z,8.73
2018-06-09T19:34:49.231Z,8.60
2018-06-09T19:37:19.279Z,8.50
2018-06-09T19:39:51.351Z,9.30
2018-06-09T19:42:21.781Z,9.43
2018-06-09T19:44:52.092Z,8.53
2018-06-09T19:47:21.071Z,9.07
2018-06-09T19:49:52.855Z,9.00
2018-06-09T19:52:22.370Z,8.27
2018-06-09T19:54:57.849Z,7.70
2018-06-09T19:57:26.691Z,8.60
2018-06-09T19:59:56.385Z,8.00
2018-06-09T20:02:25.673Z,9.97
2018-06-09T20:04:59.392Z,9.07
2018-06-09T20:10:05.644Z,8.40
2018-06-09T20:12:34.938Z,8.90
2018-06-09T20:15:03.748Z,9.97
2018-06-09T20:17:36.742Z,9.20
2018-06-09T20:20:17.716Z,9.07
2018-06-09T20:22:51.338Z,8.20
2018-06-09T20:25:25.787Z,7.90
2018-06-09T20:27:56.646Z,8.37
2018-06-09T20:30:27.335Z,8.03
2018-06-09T20:32:58.091Z,8.07
2018-06-09T20:35:29.565Z,8.83
2018-06-09T20:37:59.930Z,10.00
2018-06-09T20:40:34.487Z,9.40
2018-06-09T20:43:05.868Z,8.37
2018-06-09T20:45:35.185Z,8.10
2018-06-09T20:48:18.339Z,8.30
2018-06-09T20:50:51.270Z,8.13
2018-06-09T20:53:23.454Z,7.60
2018-06-09T20:55:53.878Z,9.30
2018-06-09T20:58:24.434Z,9.10
2018-06-09T21:00:52.707Z,8.90
2018-06-09T21:03:21.720Z,9.30
2018-06-09T21:05:53.974Z,8.63
2018-06-09T21:08:23.064Z,7.67
2018-06-09T21:10:54.802Z,8.57
2018-06-09T21:13:24.077Z,8.27
2018-06-09T21:16:24.452Z,7.50
2018-06-09T21:18:58.274Z,8.00
2018-06-09T21:21:26.532Z,8.07
2018-06-09T21:23:56.166Z,8.43
2018-06-09T21:26:30.029Z,8.20
2018-06-09T21:29:02.110Z,8.90
2018-06-09T21:31:33.917Z,8.40
2018-06-09T21:34:13.401Z,8.53
2018-06-09T21:36:46.993Z,8.60
2018-06-09T21:39:22.374Z,8.73
2018-06-09T21:41:57.234Z,8.20
2018-06-09T21:44:34.303Z,8.33
2018-06-09T21:47:05.598Z,9.90
2018-06-09T21:49:37.085Z,9.73
2018-06-09T21:52:06.450Z,8.53
2018-06-09T21:54:35.104Z,8.33
2018-06-09T21:57:08.406Z,9.17
2018-06-09T21:59:36.735Z,8.60
2018-06-09T22:02:05.342Z,8.50
2018-06-09T22:04:34.799Z,9.77
2018-06-09T22:07:03.451Z,9.40
2018-06-09T22:09:33.575Z,9.37
2018-06-09T22:12:11.180Z,9.63
2018-06-09T22:14:39.454Z,9.50
2018-06-09T22:17:09.330Z,9.40
2018-06-09T22:19:37.855Z,9.43
2018-06-09T22:22:07.420Z,8.70
2018-06-09T22:24:36.340Z,8.77
2018-06-09T22:27:05.047Z,8.50
2018-06-09T22:29:34.878Z,7.87
2018-06-09T22:32:10.008Z,8.37
2018-06-09T22:34:39.385Z,8.37
2018-06-09T22:37:08.849Z,8.07
2018-06-09T22:39:37.173Z,7.87
2018-06-09T22:42:07.380Z,9.13
2018-06-09T22:44:39.748Z,9.27
2018-06-09T22:47:08.949Z,9.40
2018-06-09T22:49:38.949Z,9.07
2018-06-09T22:52:08.446Z,9.03
2018-06-09T22:54:39.338Z,9.07
2018-06-09T22:57:09.157Z,9.47
2018-06-09T22:59:37.898Z,9.63
2018-06-09T23:02:11.290Z,9.77
2018-06-09T23:04:47.582Z,10.03
2018-06-09T23:07:17.291Z,10.23
2018-06-09T23:09:53.261Z,8.93
2018-06-09T23:12:22.791Z,9.20
2018-06-09T23:14:53.364Z,9.17
2018-06-09T23:17:22.664Z,9.03
2018-06-09T23:19:52.270Z,10.07
2018-06-09T23:22:25.346Z,10.17
2018-06-09T23:24:54.563Z,10.53
2018-06-09T23:27:26.281Z,10.77
2018-06-09T23:29:56.796Z,10.13
2018-06-09T23:32:26.757Z,11.80
2018-06-09T23:34:56.148Z,11.70
2018-06-09T23:37:27.355Z,12.13
2018-06-09T23:39:57.626Z,11.37
2018-06-09T23:42:30.230Z,12.40
2018-06-09T23:44:58.693Z,11.97
2018-06-09T23:47:26.786Z,11.57
2018-06-09T23:49:57.405Z,11.30
2018-06-09T23:52:25.608Z,10.67
2018-06-09T23:54:54.808Z,9.87
2018-06-09T23:57:24.827Z,11.37
2018-06-09T23:59:53.365Z,10.77
